No particular awareness of the weather is required.    There are no Weather-warnings


Meteo18 Weather Cam more information Meteo18 Weather Cam


Thunder radar more information blitzortung!


Rain radar more information rain snow radar


Visit our other weather sites:

Template documentation
and downloads

And another site



Weather Underground History page Text

Daily Summary for September 17, 2017 Units:  English    Metric   Both
« Previous Day
Next Day »
Daily Weekly Monthly Yearly Custom
  High: Low: Average:
Temperature: TemperatureC °F 9.2 °F 10.4 °F
Dew Point: DewpointC °F 7.9 °F 8.9 °F
Humidity: Humidity % 77 % 91 %
Wind Speed: WindSpeedKMH mph 0.0 mph 3.1 mph
Wind Gust: WindSpeedGustKMH mph - -
Wind:- - SW
Pressure: PressurehPa in 1013.4 in -
Precipitation: 4.3 in    
Historical Graphs
 
 
Tabular Data for September 17, 2017
Time Temperature Dew Point Pressure Wind Wind Speed Wind Gust Humidity Rainfall Rate (Hourly)
TemperatureC °F DewpointC °F PressurehPa in Calm     Humidity % HourlyPrecipMM in
00:02 9.3 °F 8.5 °F 1014.1 in Calm   3.2 mph 95 % 0.0 in
00:07 9.3 °F 8.5 °F 1014.1 in Calm   3.2 mph 95 % 0.0 in
00:12 9.3 °F 8.5 °F 1014.1 in SE 1.6 mph 3.2 mph 95 % 0.0 in
00:17 9.4 °F 8.6 °F 1014.1 in South 3.2 mph 3.2 mph 95 % 0.0 in
00:22 9.5 °F 8.7 °F 1014.1 in SW 6.4 mph 6.4 mph 95 % 0.0 in
00:32 9.7 °F 8.9 °F 1014.1 in SSW 4.8 mph 6.4 mph 95 % 0.0 in
00:37 9.6 °F 8.8 °F 1014.1 in SSW 3.2 mph 11.3 mph 95 % 0.3 in
00:42 9.6 °F 8.7 °F 1014.1 in South 3.2 mph 11.3 mph 94 % 0.5 in
00:47 9.6 °F 8.7 °F 1014.1 in SSW 4.8 mph 9.7 mph 94 % 0.5 in
00:52 9.6 °F 8.7 °F 1013.8 in SSW 3.2 mph 9.7 mph 94 % 0.5 in
00:57 9.6 °F 8.8 °F 1014.1 in SW 1.6 mph 8.0 mph 95 % 0.5 in
01:02 9.6 °F 8.8 °F 1013.8 in SSE 1.6 mph 8.0 mph 95 % 1.0 in
01:07 9.6 °F 8.8 °F 1013.8 in Calm   6.4 mph 95 % 1.3 in
01:12 9.6 °F 8.8 °F 1013.8 in SW 4.8 mph 4.8 mph 95 % 1.3 in
01:17 9.6 °F 8.8 °F 1013.8 in SSW 1.6 mph 6.4 mph 95 % 1.3 in
01:22 9.6 °F 8.8 °F 1013.8 in SSW 1.6 mph 6.4 mph 95 % 1.3 in
01:27 9.6 °F 8.8 °F 1013.8 in SW 1.6 mph 6.4 mph 95 % 1.3 in
01:32 9.6 °F 8.8 °F 1013.8 in SW 1.6 mph 4.8 mph 95 % 1.5 in
01:37 9.5 °F 8.7 °F 1013.8 in SW 3.2 mph 4.8 mph 95 % 1.5 in
01:42 9.5 °F 8.7 °F 1013.8 in SW 4.8 mph 4.8 mph 95 % 1.5 in
01:47 9.5 °F 8.7 °F 1013.8 in SW 4.8 mph 9.7 mph 95 % 1.5 in
01:52 9.5 °F 8.7 °F 1013.8 in WSW 4.8 mph 11.3 mph 95 % 1.3 in
01:57 9.5 °F 8.7 °F 1013.8 in SW 4.8 mph 11.3 mph 95 % 1.0 in
02:02 9.5 °F 8.7 °F 1013.8 in SSW 3.2 mph 11.3 mph 95 % 0.8 in
02:07 9.6 °F 8.7 °F 1013.8 in WNW 3.2 mph 9.7 mph 94 % 0.5 in
02:12 9.6 °F 8.7 °F 1013.8 in West 4.8 mph 9.7 mph 94 % 0.5 in
02:17 9.6 °F 8.7 °F 1013.8 in WSW 3.2 mph 11.3 mph 94 % 0.5 in
02:22 9.6 °F 8.5 °F 1013.8 in SW 3.2 mph 11.3 mph 93 % 0.5 in
02:32 9.6 °F 8.5 °F 1013.8 in Calm   8.0 mph 93 % 0.0 in
02:37 9.6 °F 8.5 °F 1013.8 in SW 1.6 mph 6.4 mph 93 % 0.0 in
02:42 9.6 °F 8.5 °F 1013.8 in SW 1.6 mph 4.8 mph 93 % 0.0 in
02:47 9.6 °F 8.5 °F 1013.4 in Calm   4.8 mph 93 % 0.0 in
02:52 9.5 °F 8.4 °F 1013.4 in Calm   4.8 mph 93 % 0.0 in
02:57 9.5 °F 8.4 °F 1013.4 in Calm   3.2 mph 93 % 0.0 in
03:02 9.4 °F 8.5 °F 1013.4 in Calm   1.6 mph 94 % 0.0 in
03:07 9.4 °F 8.5 °F 1013.4 in SW 1.6 mph 1.6 mph 94 % 0.0 in
03:12 9.4 °F 8.5 °F 1013.8 in SSW 1.6 mph 3.2 mph 94 % 0.0 in
03:17 9.4 °F 8.5 °F 1013.8 in SSW 1.6 mph 3.2 mph 94 % 0.0 in
03:22 9.3 °F 8.4 °F 1013.4 in Calm   3.2 mph 94 % 0.0 in
03:27 9.3 °F 8.4 °F 1013.4 in Calm   3.2 mph 94 % 0.0 in
03:32 9.4 °F 8.6 °F 1013.4 in SSW 1.6 mph 3.2 mph 95 % 0.0 in
03:37 9.3 °F 8.5 °F 1013.4 in Calm   3.2 mph 95 % 0.0 in
03:42 9.3 °F 8.5 °F 1013.4 in Calm   3.2 mph 95 % 0.0 in
03:47 9.3 °F 8.5 °F 1013.4 in Calm   3.2 mph 95 % 0.0 in
03:52 9.3 °F 8.5 °F 1013.4 in Calm   1.6 mph 95 % 0.0 in
04:02 9.2 °F 8.4 °F 1013.8 in Calm   1.6 mph 95 % 0.0 in
04:07 9.2 °F 8.4 °F 1013.8 in Calm   3.2 mph 95 % 0.0 in
04:12 9.2 °F 8.4 °F 1013.4 in Calm   3.2 mph 95 % 0.0 in
04:17 9.2 °F 8.4 °F 1013.4 in Calm   3.2 mph 95 % 0.0 in
04:22 9.2 °F 8.4 °F 1013.8 in Calm   3.2 mph 95 % 0.0 in
04:27 9.3 °F 8.5 °F 1013.8 in Calm   3.2 mph 95 % 0.0 in
04:32 9.4 °F 8.8 °F 1013.8 in Calm   3.2 mph 96 % 0.0 in
04:37 9.4 °F 8.8 °F 1013.8 in SW 1.6 mph 3.2 mph 96 % 0.0 in
04:42 9.5 °F 8.9 °F 1013.8 in SW 6.4 mph 6.4 mph 96 % 0.0 in
04:47 9.6 °F 9.0 °F 1013.4 in Calm   6.4 mph 96 % 0.0 in
04:52 9.6 °F 9.0 °F 1013.4 in SW 1.6 mph 6.4 mph 96 % 0.0 in
04:57 9.6 °F 9.0 °F 1013.4 in Calm   6.4 mph 96 % 0.0 in
05:02 9.6 °F 9.0 °F 1013.4 in Calm   6.4 mph 96 % 0.0 in
05:12 9.6 °F 9.0 °F 1013.4 in Calm   4.8 mph 96 % 0.0 in
05:22 9.6 °F 9.0 °F 1013.4 in Calm     96 % 0.0 in
05:27 9.6 °F 9.0 °F 1013.4 in Calm     96 % 0.0 in
05:32 9.6 °F 9.0 °F 1013.4 in SW 4.8 mph   96 % 0.0 in
05:42 9.6 °F 9.0 °F 1013.4 in Calm   3.2 mph 96 % 0.0 in
05:52 9.7 °F 9.1 °F 1013.4 in SSE 1.6 mph 4.8 mph 96 % 0.0 in
05:57 9.7 °F 9.1 °F 1013.4 in Calm   3.2 mph 96 % 0.0 in
06:02 9.7 °F 9.1 °F 1013.4 in SSW 4.8 mph 4.8 mph 96 % 0.0 in
06:12 9.7 °F 9.1 °F 1013.4 in SSW 6.4 mph 6.4 mph 96 % 0.0 in
06:17 9.7 °F 9.1 °F 1013.4 in SW 3.2 mph 8.0 mph 96 % 0.0 in
06:22 9.7 °F 9.1 °F 1013.4 in SW 4.8 mph 8.0 mph 96 % 0.0 in
06:32 9.7 °F 9.1 °F 1013.4 in SW 6.4 mph 8.0 mph 96 % 0.0 in
06:37 9.8 °F 9.2 °F 1013.4 in SW 3.2 mph 11.3 mph 96 % 0.0 in
06:42 9.8 °F 9.2 °F 1013.4 in SSW 3.2 mph 11.3 mph 96 % 0.0 in
06:47 9.8 °F 9.0 °F 1013.4 in SSW 8.0 mph 11.3 mph 95 % 0.0 in
06:52 9.8 °F 9.0 °F 1013.4 in SW 4.8 mph 11.3 mph 95 % 0.0 in
06:57 9.8 °F 9.0 °F 1013.4 in SW 1.6 mph 9.7 mph 95 % 0.0 in
07:02 9.8 °F 9.0 °F 1013.4 in SSW 1.6 mph 9.7 mph 95 % 0.0 in
07:12 9.8 °F 9.0 °F 1013.4 in SSW 3.2 mph 8.0 mph 95 % 0.0 in
07:17 9.8 °F 9.0 °F 1013.8 in Calm   8.0 mph 95 % 0.0 in
07:22 9.8 °F 9.0 °F 1013.8 in SW 4.8 mph 8.0 mph 95 % 0.0 in
07:32 9.8 °F 9.0 °F 1013.8 in SW 4.8 mph 8.0 mph 95 % 0.0 in
07:37 9.8 °F 9.0 °F 1013.8 in SW 4.8 mph 8.0 mph 95 % 0.0 in
07:42 9.8 °F 9.0 °F 1013.8 in SW 4.8 mph 8.0 mph 95 % 0.0 in
07:52 9.9 °F 9.1 °F 1013.8 in SW 6.4 mph 8.0 mph 95 % 0.0 in
08:02 9.9 °F 9.1 °F 1013.8 in SSW 3.2 mph 8.0 mph 95 % 0.0 in
08:12 9.9 °F 9.1 °F 1013.8 in SSW 3.2 mph 8.0 mph 95 % 0.0 in
08:17 9.9 °F 9.1 °F 1014.1 in SE 1.6 mph 9.7 mph 95 % 0.0 in
08:22 9.9 °F 9.1 °F 1014.1 in SSW 1.6 mph 9.7 mph 95 % 0.0 in
08:32 9.9 °F 9.1 °F 1014.1 in Calm   8.0 mph 95 % 0.0 in
08:37 9.9 °F 9.1 °F 1014.1 in Calm   4.8 mph 95 % 0.0 in
08:42 9.9 °F 9.1 °F 1014.1 in Calm   4.8 mph 95 % 0.0 in
08:47 9.9 °F 9.1 °F 1014.1 in SSW 4.8 mph 6.4 mph 95 % 0.0 in
08:52 9.9 °F 9.1 °F 1014.1 in Calm   6.4 mph 95 % 0.0 in
08:57 9.9 °F 9.1 °F 1014.1 in SW 3.2 mph 6.4 mph 95 % 0.0 in
09:02 9.9 °F 9.1 °F 1014.1 in South 1.6 mph 6.4 mph 95 % 0.0 in
09:12 9.9 °F 9.1 °F 1014.1 in SSW 1.6 mph 6.4 mph 95 % 0.0 in
09:17 9.9 °F 9.1 °F 1014.1 in SE 3.2 mph 4.8 mph 95 % 0.0 in
09:22 10.0 °F 9.2 °F 1014.1 in SSW 1.6 mph 4.8 mph 95 % 0.0 in
09:32 10.1 °F 9.3 °F 1014.1 in SSW 3.2 mph 4.8 mph 95 % 0.0 in
09:37 10.1 °F 9.3 °F 1014.1 in South 3.2 mph 8.0 mph 95 % 0.0 in
09:42 10.1 °F 9.3 °F 1014.1 in SW 8.0 mph 8.0 mph 95 % 0.0 in
09:52 10.1 °F 9.2 °F 1014.4 in SW 3.2 mph 11.3 mph 94 % 0.0 in
09:57 10.0 °F 9.1 °F 1014.4 in SW 8.0 mph 14.5 mph 94 % 0.3 in
10:02 10.0 °F 9.1 °F 1014.4 in SSW 3.2 mph 14.5 mph 94 % 0.3 in
10:12 10.1 °F 9.2 °F 1014.4 in WSW 6.4 mph 12.9 mph 94 % 0.3 in
10:17 10.2 °F 9.3 °F 1014.4 in SW 3.2 mph 16.1 mph 94 % 0.3 in
10:22 10.2 °F 9.3 °F 1014.4 in SW 4.8 mph 16.1 mph 94 % 0.3 in
10:32 10.3 °F 9.2 °F 1014.4 in WSW 3.2 mph 9.7 mph 93 % 0.3 in
10:42 10.3 °F 9.1 °F 1014.4 in WSW 6.4 mph 12.9 mph 92 % 0.3 in
10:47 10.3 °F 8.9 °F 1014.4 in WSW 6.4 mph 12.9 mph 91 % 0.3 in
10:52 10.4 °F 9.2 °F 1014.4 in West 1.6 mph 12.9 mph 92 % 0.3 in
10:57 10.3 °F 8.9 °F 1014.8 in WSW 4.8 mph 12.9 mph 91 % 0.0 in
11:02 10.4 °F 9.2 °F 1014.4 in SW 6.4 mph 11.3 mph 92 % 0.0 in
11:12 10.2 °F 8.5 °F 1014.4 in WSW 8.0 mph 9.7 mph 89 % 0.0 in
11:22 10.2 °F 8.5 °F 1014.4 in SSW 3.2 mph 12.9 mph 89 % 0.3 in
11:32 10.3 °F 8.6 °F 1014.4 in SW 4.8 mph 12.9 mph 89 % 0.3 in
11:37 10.3 °F 8.7 °F 1014.4 in Calm   8.0 mph 90 % 0.3 in
11:42 10.3 °F 8.7 °F 1014.4 in SW 4.8 mph 8.0 mph 90 % 0.3 in
11:52 10.4 °F 9.0 °F 1014.4 in WSW 8.0 mph 8.0 mph 91 % 0.5 in
11:57 10.4 °F 9.0 °F 1014.4 in WSW 3.2 mph 8.0 mph 91 % 0.5 in
12:02 10.6 °F 9.2 °F 1014.4 in WSW 6.4 mph 8.0 mph 91 % 0.5 in
12:12 10.5 °F 9.1 °F 1014.4 in SW 9.7 mph 9.7 mph 91 % 0.5 in
12:17 10.6 °F 9.4 °F 1014.4 in SW 1.6 mph 8.0 mph 92 % 0.5 in
12:22 10.7 °F 9.5 °F 1014.4 in WSW 3.2 mph 8.0 mph 92 % 0.5 in
12:37 10.8 °F 9.4 °F 1014.1 in SW 3.2 mph 8.0 mph 91 % 0.5 in
12:42 10.8 °F 9.6 °F 1014.1 in SSW 3.2 mph 8.0 mph 92 % 0.5 in
12:52 10.9 °F 9.7 °F 1014.1 in SW 6.4 mph 8.0 mph 92 % 0.5 in
12:57 10.9 °F 9.7 °F 1014.1 in SSW 3.2 mph 11.3 mph 92 % 0.8 in
13:02 10.9 °F 9.7 °F 1014.1 in WSW 11.3 mph 11.3 mph 92 % 0.8 in
13:12 10.7 °F 8.8 °F 1014.4 in SSW 9.7 mph 17.7 mph 88 % 0.5 in
13:17 10.8 °F 9.1 °F 1014.4 in South 9.7 mph 17.7 mph 89 % 0.5 in
13:32 10.9 °F 9.2 °F 1014.4 in SW 4.8 mph 17.7 mph 89 % 0.5 in
13:42 10.8 °F 8.9 °F 1014.1 in SSW 8.0 mph 16.1 mph 88 % 0.5 in
13:47 10.8 °F 8.6 °F 1014.1 in WSW 6.4 mph 16.1 mph 86 % 0.5 in
13:52 10.8 °F 8.7 °F 1014.1 in West 4.8 mph 16.1 mph 87 % 0.5 in
13:57 10.9 °F 8.6 °F 1014.1 in SW 6.4 mph 12.9 mph 86 % 0.3 in
14:02 10.8 °F 8.2 °F 1014.1 in SSW 8.0 mph 16.1 mph 84 % 0.3 in
14:07 10.8 °F 8.7 °F 1014.1 in SSW 3.2 mph 16.1 mph 87 % 0.3 in
14:12 10.9 °F 8.6 °F 1014.1 in SSW 1.6 mph 16.1 mph 86 % 0.3 in
14:17 10.9 °F 8.6 °F 1014.1 in South 3.2 mph 14.5 mph 86 % 0.3 in
14:22 11.0 °F 9.1 °F 1014.1 in SSW 6.4 mph 11.3 mph 88 % 0.3 in
14:27 10.9 °F 8.5 °F 1014.1 in SSW 4.8 mph 14.5 mph 85 % 0.5 in
14:32 10.9 °F 8.8 °F 1014.1 in SSW 4.8 mph 14.5 mph 87 % 0.3 in
14:37 10.9 °F 8.8 °F 1014.1 in SSW 6.4 mph 14.5 mph 87 % 0.3 in
14:42 10.9 °F 8.8 °F 1014.1 in SW 3.2 mph 14.5 mph 87 % 0.3 in
14:47 10.8 °F 7.9 °F 1014.1 in SW 11.3 mph 14.5 mph 82 % 0.5 in
14:52 10.8 °F 7.9 °F 1014.1 in WSW 4.8 mph 12.9 mph 82 % 0.5 in
14:57 11.2 °F 8.6 °F 1014.1 in Calm   12.9 mph 84 % 0.5 in
15:02 11.4 °F 8.4 °F 1014.1 in SSW 4.8 mph 12.9 mph 82 % 0.5 in
15:07 11.4 °F 8.6 °F 1014.1 in SW 6.4 mph 12.9 mph 83 % 0.5 in
15:12 11.4 °F 8.4 °F 1014.1 in SW 6.4 mph 12.9 mph 82 % 0.5 in
15:17 11.6 °F 9.2 °F 1013.8 in SSW 3.2 mph 12.9 mph 85 % 0.5 in
15:22 11.6 °F 8.8 °F 1014.1 in West 4.8 mph 14.5 mph 83 % 0.5 in
15:27 11.5 °F 8.9 °F 1013.8 in SW 6.4 mph 14.5 mph 84 % 0.3 in
15:32 11.4 °F 8.6 °F 1013.8 in WSW 3.2 mph 11.3 mph 83 % 0.3 in
15:37 11.4 °F 8.4 °F 1013.8 in WSW 4.8 mph 9.7 mph 82 % 0.3 in
15:42 11.4 °F 8.1 °F 1013.8 in WSW 3.2 mph 9.7 mph 80 % 0.3 in
15:47 11.4 °F 8.3 °F 1013.8 in SSW 1.6 mph 9.7 mph 81 % 0.0 in
15:52 11.5 °F 8.5 °F 1013.8 in WSW 1.6 mph 9.7 mph 82 % 0.0 in
15:57 11.6 °F 8.8 °F 1013.8 in WSW 1.6 mph 8.0 mph 83 % 0.0 in
16:02 11.6 °F 9.0 °F 1013.8 in Calm   8.0 mph 84 % 0.0 in
16:07 11.6 °F 8.8 °F 1013.8 in SW 3.2 mph 9.7 mph 83 % 0.0 in
16:12 11.6 °F 8.8 °F 1013.8 in West 3.2 mph 9.7 mph 83 % 0.0 in
16:17 11.9 °F 9.3 °F 1013.8 in SW 3.2 mph 9.7 mph 84 % 0.0 in
16:22 12.2 °F 9.6 °F 1013.8 in SSW 6.4 mph 8.0 mph 84 % 0.0 in
16:32 12.2 °F 8.9 °F 1013.8 in West 4.8 mph 11.3 mph 80 % 0.0 in
16:37 12.3 °F 9.1 °F 1013.8 in West 9.7 mph 11.3 mph 81 % 0.0 in
16:42 12.2 °F 8.7 °F 1013.8 in SW 1.6 mph 14.5 mph 79 % 0.0 in
16:47 12.3 °F 8.9 °F 1013.8 in SSW 4.8 mph 14.5 mph 80 % 0.0 in
16:52 12.1 °F 8.2 °F 1013.8 in SW 3.2 mph 14.5 mph 77 % 0.0 in
16:57 12.2 °F 8.7 °F 1013.8 in WNW 1.6 mph 11.3 mph 79 % 0.0 in
17:02 12.2 °F 8.7 °F 1013.8 in WSW 4.8 mph 11.3 mph 79 % 0.0 in
17:07 12.3 °F 8.8 °F 1013.8 in WNW 4.8 mph 9.7 mph 79 % 0.0 in
17:17 12.3 °F 8.8 °F 1013.8 in West 3.2 mph 12.9 mph 79 % 0.0 in
17:22 12.5 °F 8.8 °F 1013.8 in SW 8.0 mph 12.9 mph 78 % 0.0 in
17:32 12.3 °F 8.6 °F 1013.8 in SW 6.4 mph 12.9 mph 78 % 0.0 in
17:37 12.4 °F 8.9 °F 1013.8 in WSW 1.6 mph 12.9 mph 79 % 0.0 in
17:42 12.6 °F 9.1 °F 1013.8 in WSW 4.8 mph 12.9 mph 79 % 0.0 in
17:47 12.7 °F 9.0 °F 1013.8 in West 3.2 mph 12.9 mph 78 % 0.0 in
17:52 12.6 °F 9.2 °F 1014.1 in SW 4.8 mph 12.9 mph 80 % 0.0 in
17:57 12.6 °F 9.2 °F 1014.1 in SW 3.2 mph 9.7 mph 80 % 0.0 in
18:02 12.6 °F 9.6 °F 1014.1 in WSW 1.6 mph 8.0 mph 82 % 0.0 in
18:07 12.6 °F 9.4 °F 1014.1 in SW 3.2 mph 9.7 mph 81 % 0.0 in
18:12 12.4 °F 9.2 °F 1014.1 in SW 3.2 mph 9.7 mph 81 % 0.0 in
18:17 12.3 °F 8.9 °F 1014.4 in West 4.8 mph 9.7 mph 80 % 0.0 in
18:22 12.2 °F 9.0 °F 1014.4 in SW 4.8 mph 9.7 mph 81 % 0.0 in
18:32 12.1 °F 9.1 °F 1014.4 in WSW 3.2 mph 9.7 mph 82 % 0.0 in
18:42 12.0 °F 9.2 °F 1014.4 in West 3.2 mph 6.4 mph 83 % 0.0 in
18:47 12.0 °F 9.4 °F 1014.4 in West 3.2 mph 8.0 mph 84 % 0.0 in
18:52 12.0 °F 9.4 °F 1014.4 in SW 6.4 mph 8.0 mph 84 % 0.0 in
18:57 11.9 °F 9.3 °F 1014.4 in WSW 4.8 mph 11.3 mph 84 % 0.0 in
19:02 11.9 °F 9.3 °F 1014.8 in WSW 8.0 mph 11.3 mph 84 % 0.0 in
19:07 11.8 °F 9.4 °F 1014.4 in WSW 6.4 mph 12.9 mph 85 % 0.0 in
19:12 11.7 °F 9.4 °F 1014.8 in West 4.8 mph 12.9 mph 86 % 0.0 in
19:17 11.5 °F 9.4 °F 1014.8 in WSW 4.8 mph 12.9 mph 87 % 0.0 in
19:22 11.3 °F 9.4 °F 1014.8 in WSW 4.8 mph 11.3 mph 88 % 0.0 in
19:32 11.2 °F 9.5 °F 1014.8 in Calm   8.0 mph 89 % 0.3 in
19:37 11.2 °F 9.6 °F 1014.8 in WSW 3.2 mph 8.0 mph 90 % 0.3 in
19:42 11.1 °F 9.5 °F 1014.8 in WSW 3.2 mph 6.4 mph 90 % 0.3 in
19:52 10.9 °F 9.5 °F 1015.1 in West 1.6 mph 6.4 mph 91 % 0.3 in
19:57 10.9 °F 9.5 °F 1015.1 in Calm   6.4 mph 91 % 0.3 in
20:02 10.8 °F 9.4 °F 1015.1 in WSW 1.6 mph 6.4 mph 91 % 0.3 in
20:07 10.8 °F 9.4 °F 1015.1 in Calm   3.2 mph 91 % 0.3 in
20:12 10.7 °F 9.5 °F 1015.5 in WSW 1.6 mph 3.2 mph 92 % 0.3 in
20:17 10.6 °F 9.4 °F 1015.5 in Calm   1.6 mph 92 % 0.3 in
20:22 10.5 °F 9.3 °F 1015.5 in Calm   3.2 mph 92 % 0.3 in
20:32 10.3 °F 9.1 °F 1015.8 in Calm   3.2 mph 92 % 0.0 in
20:37 10.3 °F 9.2 °F 1015.8 in Calm   4.8 mph 93 % 0.0 in
20:42 10.3 °F 9.2 °F 1015.8 in WSW 3.2 mph 4.8 mph 93 % 0.0 in
20:47 10.3 °F 9.2 °F 1016.1 in West 1.6 mph 4.8 mph 93 % 0.0 in
20:52 10.3 °F 9.2 °F 1016.1 in Calm   4.8 mph 93 % 0.0 in
20:57 10.2 °F 9.1 °F 1016.1 in WSW 1.6 mph 3.2 mph 93 % 0.0 in
21:02 10.3 °F 9.2 °F 1016.1 in Calm   3.2 mph 93 % 0.0 in
21:07 10.3 °F 9.2 °F 1016.1 in WSW 1.6 mph 3.2 mph 93 % 0.0 in
21:12 10.3 °F 9.2 °F 1016.1 in West 1.6 mph 3.2 mph 93 % 0.0 in
21:17 10.3 °F 9.2 °F 1016.1 in WSW 3.2 mph 4.8 mph 93 % 0.0 in
21:22 10.4 °F 9.3 °F 1016.1 in SW 3.2 mph 6.4 mph 93 % 0.0 in
21:27 10.4 °F 9.3 °F 1016.1 in SW 1.6 mph 6.4 mph 93 % 0.0 in
21:32 10.4 °F 9.3 °F 1016.5 in WSW 1.6 mph 6.4 mph 93 % 0.0 in
21:37 10.4 °F 9.3 °F 1016.5 in SW 4.8 mph 6.4 mph 93 % 0.0 in
21:42 10.4 °F 9.3 °F 1016.5 in West 1.6 mph 4.8 mph 93 % 0.0 in
21:47 10.4 °F 9.5 °F 1016.5 in SW 3.2 mph 6.4 mph 94 % 0.0 in
21:52 10.4 °F 9.5 °F 1016.5 in SW 3.2 mph 6.4 mph 94 % 0.0 in
21:57 10.4 °F 9.5 °F 1016.5 in West 3.2 mph 8.0 mph 94 % 0.0 in
22:02 10.4 °F 9.5 °F 1016.8 in Calm   8.0 mph 94 % 0.0 in
22:12 10.4 °F 9.5 °F 1016.8 in SW 1.6 mph 3.2 mph 94 % 0.3 in
22:17 10.4 °F 9.5 °F 1016.8 in WSW 1.6 mph 4.8 mph 94 % 0.3 in
22:22 10.4 °F 9.5 °F 1016.8 in WSW 1.6 mph 6.4 mph 94 % 0.3 in
22:27 10.4 °F 9.5 °F 1016.8 in WSW 3.2 mph 6.4 mph 94 % 0.3 in
22:32 10.3 °F 9.4 °F 1016.8 in SW 3.2 mph 6.4 mph 94 % 0.3 in
22:47 10.2 °F 9.3 °F 1016.8 in SW 4.8 mph 4.8 mph 94 % 0.3 in
22:52 10.2 °F 9.3 °F 1016.8 in SW 3.2 mph 4.8 mph 94 % 0.3 in
22:57 10.2 °F 9.3 °F 1017.2 in SW 3.2 mph 6.4 mph 94 % 0.3 in
23:02 10.2 °F 9.3 °F 1016.8 in West 1.6 mph 6.4 mph 94 % 0.0 in
23:07 10.2 °F 9.3 °F 1017.2 in SW 3.2 mph 6.4 mph 94 % 0.0 in
23:12 10.2 °F 9.3 °F 1017.2 in SW 1.6 mph 6.4 mph 94 % 0.0 in
23:17 10.2 °F 9.4 °F 1017.2 in SW 3.2 mph 6.4 mph 95 % 0.0 in
23:22 10.2 °F 9.4 °F 1017.2 in SW 1.6 mph 6.4 mph 95 % 0.0 in
23:27 10.2 °F 9.4 °F 1017.2 in Calm   6.4 mph 95 % 0.0 in
23:32 10.1 °F 9.3 °F 1017.2 in Calm   6.4 mph 95 % 0.0 in
23:37 10.2 °F 9.4 °F 1017.2 in WNW 1.6 mph 4.8 mph 95 % 0.0 in
23:42 10.1 °F 9.3 °F 1017.2 in Calm   3.2 mph 95 % 0.0 in
23:47 10.1 °F 9.3 °F 1017.2 in Calm   3.2 mph 95 % 0.0 in
23:52 10.1 °F 9.3 °F 1017.2 in Calm   1.6 mph 95 % 0.0 in
23:57 10.1 °F 9.3 °F 1017.2 in Calm     95 % 0.0 in
Meteo18
Compliments of Weather Underground - 4 mb

Script developed by  Jim McMurry - jmcmurry@mwt.net Adapted for the template by  Wim van der Kuil - Leuven-Template.eu

You find our weather info also at:

European Weather Network

Weather Underground

Equipment we use:

Weather-station
Davis Vue

Weather-program
Meteobridge

Weather-server
Raspberry PI 2 B+

Provider
1 and 1

Davis Vue

Meteobridge

Raspberry PI 2 B+

1 and 1